createdAt,value
2018-12-26T00:01:41.831Z,84.92
2018-12-26T00:04:11.148Z,85.26
2018-12-26T00:06:40.383Z,85.39
2018-12-26T00:09:09.665Z,85.29
2018-12-26T00:11:38.893Z,85.30
2018-12-26T00:14:08.190Z,85.46
2018-12-26T00:16:37.423Z,85.49
2018-12-26T00:19:06.749Z,85.30
2018-12-26T00:21:35.998Z,85.13
2018-12-26T00:24:05.383Z,84.82
2018-12-26T00:26:34.631Z,84.97
2018-12-26T00:29:03.919Z,84.80
2018-12-26T00:31:33.163Z,84.61
2018-12-26T00:34:02.454Z,84.95
2018-12-26T00:36:31.690Z,85.28
2018-12-26T00:39:00.982Z,85.40
2018-12-26T00:41:30.204Z,85.72
2018-12-26T00:43:59.444Z,85.78
2018-12-26T00:46:28.719Z,85.79
2018-12-26T00:48:57.994Z,85.34
2018-12-26T00:51:27.293Z,85.63
2018-12-26T00:53:56.535Z,85.78
2018-12-26T00:56:25.832Z,85.78
2018-12-26T00:58:55.068Z,85.79
2018-12-26T01:01:24.347Z,85.44
2018-12-26T01:03:53.594Z,85.71
2018-12-26T01:06:22.861Z,85.89
2018-12-26T01:08:52.102Z,86.22
2018-12-26T01:11:21.408Z,86.47
2018-12-26T01:13:50.659Z,86.74
2018-12-26T01:16:19.951Z,86.93
2018-12-26T01:18:49.243Z,87.45
2018-12-26T01:21:18.520Z,87.49
2018-12-26T01:23:47.772Z,87.57
2018-12-26T01:26:19.225Z,87.89
2018-12-26T01:28:48.011Z,87.95
2018-12-26T01:31:17.317Z,87.97
2018-12-26T01:33:46.547Z,87.91
2018-12-26T01:36:15.829Z,87.52
2018-12-26T01:38:45.054Z,87.40
2018-12-26T01:41:14.331Z,87.35
2018-12-26T01:43:43.581Z,87.63
2018-12-26T01:46:12.865Z,87.59
2018-12-26T01:48:42.107Z,87.79
2018-12-26T01:51:11.401Z,88.04
2018-12-26T01:53:40.637Z,87.94
2018-12-26T01:56:09.885Z,88.21
2018-12-26T01:58:39.169Z,88.11
2018-12-26T02:01:08.407Z,88.30
2018-12-26T02:03:37.688Z,88.05
2018-12-26T02:06:06.922Z,88.31
2018-12-26T02:08:36.202Z,88.15
2018-12-26T02:11:05.440Z,87.48
2018-12-26T02:13:34.777Z,87.54
2018-12-26T02:16:04.015Z,87.66
2018-12-26T02:18:33.331Z,88.32
2018-12-26T02:24:17.077Z,88.32
2018-12-26T02:26:46.308Z,88.38
2018-12-26T02:29:15.585Z,88.39
2018-12-26T02:31:44.818Z,88.33
2018-12-26T02:34:14.089Z,87.97
2018-12-26T02:36:43.329Z,87.72
2018-12-26T02:39:12.613Z,87.61
2018-12-26T02:41:41.855Z,87.82
2018-12-26T02:44:11.129Z,87.74
2018-12-26T02:46:40.371Z,87.67
2018-12-26T02:49:09.660Z,87.55
2018-12-26T02:51:38.911Z,87.29
2018-12-26T02:54:08.152Z,87.30
2018-12-26T02:56:46.183Z,87.37
2018-12-26T02:59:08.418Z,87.81
2018-12-26T03:01:37.663Z,87.99
2018-12-26T03:04:06.946Z,88.08
2018-12-26T03:06:36.195Z,88.09
2018-12-26T03:09:08.028Z,88.08
2018-12-26T03:11:37.349Z,88.04
2018-12-26T03:14:06.622Z,88.41
2018-12-26T03:16:35.870Z,88.80
2018-12-26T03:19:05.208Z,89.09
2018-12-26T03:21:34.428Z,89.16
2018-12-26T03:24:03.706Z,89.26
2018-12-26T03:26:32.960Z,89.53
2018-12-26T03:29:02.239Z,89.67
2018-12-26T03:31:31.502Z,89.50
2018-12-26T03:34:00.755Z,89.72
2018-12-26T03:36:30.005Z,89.89
2018-12-26T03:38:59.281Z,89.93
2018-12-26T03:47:59.579Z,89.65
2018-12-26T03:50:28.873Z,89.23
2018-12-26T03:52:58.110Z,89.11
2018-12-26T03:55:27.394Z,88.97
2018-12-26T03:57:56.639Z,89.15
2018-12-26T04:00:26.019Z,88.92
2018-12-26T04:02:55.266Z,88.62
2018-12-26T04:05:24.536Z,89.12
2018-12-26T04:07:53.878Z,89.03
2018-12-26T04:10:23.192Z,89.34
2018-12-26T04:12:52.436Z,89.52
2018-12-26T04:15:21.811Z,89.45
2018-12-26T04:17:51.041Z,89.42
2018-12-26T04:20:20.357Z,89.14
2018-12-26T04:22:49.786Z,88.42
2018-12-26T04:25:19.063Z,88.11
2018-12-26T04:27:48.293Z,88.29
2018-12-26T04:30:17.576Z,88.10
2018-12-26T04:32:46.812Z,87.97
2018-12-26T04:35:16.081Z,87.68
2018-12-26T04:37:45.320Z,87.38
2018-12-26T04:40:14.594Z,87.24
2018-12-26T04:42:43.874Z,87.04
2018-12-26T04:45:13.156Z,86.85
2018-12-26T04:47:42.394Z,85.70
2018-12-26T04:50:11.686Z,85.49
2018-12-26T04:52:40.935Z,85.82
2018-12-26T04:55:10.210Z,86.12
2018-12-26T04:57:39.488Z,86.47
2018-12-26T05:00:08.764Z,86.79
2018-12-26T05:02:38.002Z,87.12
2018-12-26T05:05:07.275Z,87.42
2018-12-26T05:07:36.499Z,87.44
2018-12-26T05:10:05.930Z,87.51
2018-12-26T05:12:35.169Z,87.42
2018-12-26T05:15:04.443Z,87.31
2018-12-26T05:17:33.673Z,87.46
2018-12-26T05:20:02.962Z,87.25
2018-12-26T05:22:32.236Z,86.71
2018-12-26T05:25:01.512Z,86.76
2018-12-26T05:27:34.238Z,87.37
2018-12-26T05:30:01.758Z,87.52
2018-12-26T05:32:31.025Z,87.72
2018-12-26T05:35:00.322Z,87.76
2018-12-26T05:37:29.612Z,87.69
2018-12-26T05:39:58.850Z,87.53
2018-12-26T05:42:28.141Z,87.71
2018-12-26T05:44:57.375Z,87.56
2018-12-26T05:47:26.646Z,87.66
2018-12-26T05:49:55.892Z,87.76
2018-12-26T05:52:25.164Z,87.54
2018-12-26T05:54:54.401Z,87.37
2018-12-26T05:57:23.673Z,87.55
2018-12-26T05:59:52.910Z,87.49
2018-12-26T06:02:22.216Z,87.49
2018-12-26T06:04:51.407Z,87.57
2018-12-26T06:07:20.682Z,87.41
2018-12-26T06:09:49.919Z,87.32
2018-12-26T06:12:19.279Z,87.25
2018-12-26T06:14:48.514Z,87.32
2018-12-26T06:17:17.788Z,87.42
2018-12-26T06:19:47.066Z,87.56
2018-12-26T06:22:16.338Z,87.66
2018-12-26T06:24:45.569Z,87.60
2018-12-26T06:27:14.841Z,87.48
2018-12-26T06:29:44.080Z,87.36
2018-12-26T06:32:13.361Z,87.66
2018-12-26T06:34:42.591Z,87.91
2018-12-26T06:37:11.857Z,88.22
2018-12-26T06:39:41.108Z,88.41
2018-12-26T06:42:10.739Z,88.46
2018-12-26T06:44:39.959Z,88.55
2018-12-26T06:47:09.228Z,88.65
2018-12-26T06:49:38.452Z,88.46
2018-12-26T06:52:07.772Z,88.21
2018-12-26T06:54:36.988Z,88.08
2018-12-26T06:57:06.255Z,87.73
2018-12-26T06:59:35.490Z,87.53
2018-12-26T07:02:04.872Z,87.19
2018-12-26T07:04:34.092Z,87.13
2018-12-26T07:07:03.473Z,87.18
2018-12-26T07:09:32.703Z,87.17
2018-12-26T07:12:01.966Z,87.07
2018-12-26T07:14:31.221Z,86.98
2018-12-26T07:17:00.466Z,87.55
2018-12-26T07:19:29.788Z,87.79
2018-12-26T07:21:58.991Z,88.12
2018-12-26T07:24:28.254Z,88.49
2018-12-26T07:26:57.734Z,88.67
2018-12-26T07:29:26.993Z,89.46
2018-12-26T07:31:56.227Z,89.82
2018-12-26T07:34:25.502Z,90.06
2018-12-26T07:36:54.725Z,89.73
2018-12-26T07:39:23.997Z,89.27
2018-12-26T07:41:53.225Z,88.87
2018-12-26T07:44:22.496Z,88.39
2018-12-26T07:46:51.720Z,88.68
2018-12-26T07:49:21.168Z,89.08
2018-12-26T07:52:09.485Z,89.13
2018-12-26T07:54:38.752Z,89.12
2018-12-26T07:57:07.993Z,89.49
2018-12-26T07:59:37.631Z,89.75
2018-12-26T08:02:08.237Z,89.60
2018-12-26T08:04:37.500Z,88.91
2018-12-26T08:07:06.726Z,87.83
2018-12-26T08:09:36.000Z,86.54
2018-12-26T08:12:05.260Z,85.17
2018-12-26T08:14:34.529Z,83.17
2018-12-26T08:17:03.762Z,81.44
2018-12-26T08:19:33.155Z,80.45
2018-12-26T08:22:02.425Z,79.34
2018-12-26T08:25:11.045Z,77.91
2018-12-26T08:27:40.358Z,76.35
2018-12-26T08:30:09.643Z,75.44
2018-12-26T08:32:38.934Z,74.89
2018-12-26T08:35:08.335Z,74.52
2018-12-26T08:37:37.804Z,73.15
2018-12-26T08:40:07.444Z,72.60
2018-12-26T08:42:36.672Z,72.40
2018-12-26T08:45:06.260Z,71.88
2018-12-26T08:47:35.495Z,71.67
2018-12-26T08:50:04.783Z,72.33
2018-12-26T08:52:34.009Z,73.48
2018-12-26T08:55:03.283Z,73.60
2018-12-26T08:57:32.518Z,72.96
2018-12-26T09:00:01.814Z,72.27
2018-12-26T09:02:31.038Z,71.13
2018-12-26T09:05:00.320Z,69.79
2018-12-26T09:07:29.531Z,67.78
2018-12-26T09:09:58.803Z,67.94
2018-12-26T09:12:28.023Z,66.91
2018-12-26T09:14:57.295Z,67.58
2018-12-26T09:17:26.520Z,67.87
2018-12-26T09:19:55.828Z,67.27
2018-12-26T09:22:25.055Z,66.31
2018-12-26T09:24:54.337Z,65.09
2018-12-26T09:27:23.567Z,63.85
2018-12-26T09:29:53.223Z,63.86
2018-12-26T09:32:23.788Z,64.00
2018-12-26T09:34:53.049Z,65.17
2018-12-26T09:37:22.273Z,67.33
2018-12-26T09:39:51.541Z,67.75
2018-12-26T09:42:21.026Z,68.11
2018-12-26T09:44:54.488Z,66.94
2018-12-26T09:47:21.230Z,66.70
2018-12-26T09:49:50.452Z,65.65
2018-12-26T09:52:19.715Z,63.87
2018-12-26T09:54:49.336Z,62.82
2018-12-26T09:57:19.976Z,63.26
2018-12-26T09:59:49.195Z,63.89
2018-12-26T10:02:18.462Z,63.51
2018-12-26T10:04:47.684Z,62.79
2018-12-26T10:07:16.958Z,62.08
2018-12-26T10:09:46.182Z,62.70
2018-12-26T10:12:15.454Z,62.47
2018-12-26T10:14:44.686Z,61.53
2018-12-26T10:17:13.948Z,61.23
2018-12-26T10:19:43.209Z,61.77
2018-12-26T10:22:12.467Z,62.11
2018-12-26T10:24:41.692Z,61.16
2018-12-26T10:27:10.956Z,61.98
2018-12-26T10:29:40.179Z,61.48
2018-12-26T10:32:09.460Z,62.96
2018-12-26T10:34:38.679Z,64.36
2018-12-26T10:37:07.974Z,64.90
2018-12-26T10:39:37.212Z,62.90
2018-12-26T10:42:06.474Z,63.45
2018-12-26T10:44:35.698Z,66.48
2018-12-26T10:47:04.973Z,65.17
2018-12-26T10:49:34.208Z,66.60
2018-12-26T10:52:03.487Z,67.51
2018-12-26T10:54:32.706Z,66.17
2018-12-26T10:59:42.703Z,64.04
2018-12-26T11:02:12.016Z,63.12
2018-12-26T11:04:41.236Z,61.07
2018-12-26T11:07:10.512Z,61.56
2018-12-26T11:09:39.744Z,62.18
2018-12-26T11:12:09.006Z,61.75
2018-12-26T11:14:38.231Z,62.13
2018-12-26T11:22:57.933Z,67.13
2018-12-26T11:25:27.162Z,66.12
2018-12-26T11:27:56.427Z,66.76
2018-12-26T11:30:25.657Z,68.95
2018-12-26T11:33:13.830Z,71.53
2018-12-26T11:35:43.063Z,72.38
2018-12-26T11:38:12.328Z,73.42
2018-12-26T11:40:41.555Z,71.04
2018-12-26T11:43:10.810Z,71.54
2018-12-26T11:45:40.040Z,73.74
2018-12-26T11:48:09.305Z,74.29
2018-12-26T11:50:38.528Z,73.49
2018-12-26T11:53:07.788Z,73.02
2018-12-26T11:55:37.023Z,70.23
2018-12-26T11:58:06.288Z,69.68
2018-12-26T12:00:35.523Z,69.60
2018-12-26T12:03:04.811Z,67.30
2018-12-26T12:05:34.045Z,64.26
2018-12-26T12:08:03.290Z,64.75
2018-12-26T12:10:32.510Z,66.40
2018-12-26T12:13:01.839Z,67.79
2018-12-26T12:15:31.067Z,69.98
2018-12-26T12:18:00.360Z,70.39
2018-12-26T12:20:29.591Z,72.11
2018-12-26T12:22:58.835Z,70.88
2018-12-26T12:25:28.055Z,69.33
2018-12-26T12:27:57.325Z,68.70
2018-12-26T12:30:26.544Z,71.05
2018-12-26T12:32:55.802Z,72.13
2018-12-26T12:35:25.040Z,71.06
2018-12-26T12:37:54.312Z,73.17
2018-12-26T12:40:23.539Z,75.75
2018-12-26T12:42:52.856Z,77.19
2018-12-26T12:45:22.177Z,77.93
2018-12-26T12:47:51.402Z,76.49
2018-12-26T12:53:15.894Z,72.58
2018-12-26T12:55:45.122Z,71.32
2018-12-26T12:58:14.378Z,71.10
2018-12-26T13:00:43.605Z,71.54
2018-12-26T13:03:12.830Z,72.76
2018-12-26T13:05:42.093Z,74.07
2018-12-26T13:08:13.229Z,74.44
2018-12-26T13:10:42.283Z,72.89
2018-12-26T13:13:11.511Z,73.87
2018-12-26T13:15:40.776Z,74.42
2018-12-26T13:18:10.039Z,73.95
2018-12-26T13:20:39.291Z,73.74
2018-12-26T13:23:08.522Z,74.48
2018-12-26T13:25:37.783Z,76.18
2018-12-26T13:28:07.016Z,75.65
2018-12-26T13:30:36.279Z,74.43
2018-12-26T13:33:05.506Z,73.65
2018-12-26T13:35:34.785Z,73.21
2018-12-26T13:38:04.011Z,73.13
2018-12-26T13:40:33.286Z,72.62
2018-12-26T13:43:02.510Z,72.47
2018-12-26T13:45:31.791Z,72.64
2018-12-26T13:48:01.008Z,72.79
2018-12-26T13:50:30.276Z,73.86
2018-12-26T13:52:59.515Z,72.94
2018-12-26T13:55:28.785Z,72.11
2018-12-26T13:57:58.009Z,72.76
2018-12-26T14:00:27.283Z,74.01
2018-12-26T14:02:56.503Z,75.68
2018-12-26T14:05:25.782Z,74.97
2018-12-26T14:07:55.014Z,73.21
2018-12-26T14:10:24.284Z,73.11
2018-12-26T14:12:53.526Z,73.71
2018-12-26T14:15:22.787Z,74.54
2018-12-26T14:17:52.059Z,74.51
2018-12-26T14:20:21.334Z,74.46
2018-12-26T14:23:09.541Z,74.86
2018-12-26T14:25:38.812Z,75.61
2018-12-26T14:28:08.027Z,76.62
2018-12-26T14:30:37.283Z,77.11
2018-12-26T14:33:06.519Z,77.24
2018-12-26T14:35:35.793Z,77.56
2018-12-26T14:38:05.016Z,77.99
2018-12-26T14:40:34.277Z,78.12
2018-12-26T14:43:03.502Z,78.35
2018-12-26T14:45:32.773Z,79.24
2018-12-26T14:48:01.994Z,79.08
2018-12-26T14:50:31.270Z,79.15
2018-12-26T14:53:00.491Z,79.48
2018-12-26T14:55:29.770Z,79.53
2018-12-26T14:57:58.979Z,79.87
2018-12-26T15:00:28.242Z,80.95
2018-12-26T15:02:57.463Z,80.90
2018-12-26T15:05:26.731Z,81.41
2018-12-26T15:07:55.975Z,81.73
2018-12-26T15:10:25.288Z,81.17
2018-12-26T15:12:54.521Z,81.75
2018-12-26T15:15:23.751Z,82.65
2018-12-26T15:17:54.792Z,82.84
2018-12-26T15:20:24.016Z,83.15
2018-12-26T15:22:53.283Z,84.24
2018-12-26T15:25:22.507Z,83.94
2018-12-26T15:27:51.770Z,83.50
2018-12-26T15:30:28.432Z,84.09
2018-12-26T15:32:52.006Z,84.96
2018-12-26T15:35:21.237Z,86.07
2018-12-26T15:37:50.507Z,86.64
2018-12-26T15:40:19.742Z,86.39
2018-12-26T15:42:49.000Z,86.76
2018-12-26T15:45:18.231Z,86.83
2018-12-26T15:47:47.493Z,86.29
2018-12-26T15:50:16.716Z,86.17
2018-12-26T15:52:45.980Z,86.52
2018-12-26T15:55:15.207Z,86.76
2018-12-26T15:57:44.477Z,86.53
2018-12-26T16:00:13.713Z,86.60
2018-12-26T16:02:43.000Z,87.46
2018-12-26T16:05:12.232Z,87.84
2018-12-26T16:07:41.514Z,87.92
2018-12-26T16:10:10.843Z,88.32
2018-12-26T16:12:40.129Z,88.09
2018-12-26T16:15:10.188Z,86.89
2018-12-26T16:17:39.463Z,86.24
2018-12-26T16:20:10.342Z,86.32
2018-12-26T16:22:39.849Z,87.00
2018-12-26T16:25:10.625Z,87.29
2018-12-26T16:27:39.904Z,87.94
2018-12-26T16:30:09.851Z,88.29
2018-12-26T16:32:39.128Z,88.78
2018-12-26T16:35:09.402Z,89.00
2018-12-26T16:37:38.674Z,88.82
2018-12-26T16:40:09.840Z,89.00
2018-12-26T16:42:39.108Z,88.74
2018-12-26T16:45:08.437Z,88.18
2018-12-26T16:47:37.707Z,88.78
2018-12-26T16:50:07.768Z,88.59
2018-12-26T16:52:57.681Z,89.00
2018-12-26T16:55:26.901Z,89.17
2018-12-26T16:57:56.167Z,89.18
2018-12-26T17:00:25.456Z,89.15
2018-12-26T17:03:13.782Z,88.82
2018-12-26T17:05:43.028Z,88.79
2018-12-26T17:08:12.394Z,88.58
2018-12-26T17:10:41.615Z,88.72
2018-12-26T17:13:10.888Z,88.30
2018-12-26T17:15:40.293Z,87.71
2018-12-26T17:18:09.596Z,87.61
2018-12-26T17:20:38.836Z,88.12
2018-12-26T17:23:27.149Z,88.04
2018-12-26T17:25:56.390Z,88.08
2018-12-26T17:28:25.653Z,88.28
2018-12-26T17:31:03.932Z,87.11
2018-12-26T17:33:25.896Z,86.89
2018-12-26T17:35:55.122Z,87.13
2018-12-26T17:38:24.428Z,87.22
2018-12-26T17:40:53.654Z,86.88
2018-12-26T17:43:22.913Z,87.33
2018-12-26T17:45:52.135Z,87.39
2018-12-26T17:48:21.395Z,87.83
2018-12-26T17:50:51.878Z,88.13
2018-12-26T17:53:59.184Z,88.65
2018-12-26T17:56:36.871Z,88.67
2018-12-26T17:59:31.096Z,88.58
2018-12-26T18:04:56.105Z,86.89
2018-12-26T18:07:25.341Z,86.95
2018-12-26T18:09:54.607Z,87.07
2018-12-26T18:12:23.827Z,86.89
2018-12-26T18:14:53.101Z,86.43
2018-12-26T18:17:22.345Z,86.25
2018-12-26T18:19:51.651Z,86.33
2018-12-26T18:22:20.883Z,86.33
2018-12-26T18:24:50.143Z,86.08
2018-12-26T18:27:19.437Z,86.76
2018-12-26T18:29:48.785Z,86.70
2018-12-26T18:32:18.013Z,87.17
2018-12-26T18:34:47.279Z,87.28
2018-12-26T18:37:16.499Z,87.36
2018-12-26T18:39:45.762Z,87.77
2018-12-26T18:42:14.991Z,87.47
2018-12-26T18:44:44.220Z,87.73
2018-12-26T18:47:13.488Z,88.07
2018-12-26T18:49:42.720Z,87.54
2018-12-26T18:52:12.036Z,87.14
2018-12-26T18:54:41.269Z,87.04
2018-12-26T18:57:10.532Z,87.53
2018-12-26T18:59:39.763Z,87.66
2018-12-26T19:02:09.078Z,87.22
2018-12-26T19:04:38.297Z,86.40
2018-12-26T19:07:07.592Z,86.46
2018-12-26T19:09:36.825Z,86.06
2018-12-26T19:12:06.092Z,85.53
2018-12-26T19:14:35.328Z,85.60
2018-12-26T19:17:04.597Z,85.84
2018-12-26T19:22:22.192Z,85.43
2018-12-26T19:24:51.427Z,85.82
2018-12-26T19:27:20.690Z,86.07
2018-12-26T19:29:49.914Z,86.50
2018-12-26T19:32:19.705Z,86.96
2018-12-26T19:34:48.935Z,86.88
2018-12-26T19:39:53.008Z,87.15
2018-12-26T19:42:22.274Z,86.84
2018-12-26T19:44:51.505Z,86.72
2018-12-26T19:47:20.837Z,86.78
2018-12-26T19:49:50.072Z,86.71
2018-12-26T19:52:19.333Z,86.60
2018-12-26T19:54:48.555Z,86.23
2018-12-26T19:57:17.845Z,86.37
2018-12-26T19:59:47.071Z,86.40
2018-12-26T20:02:16.400Z,86.47
2018-12-26T20:04:45.622Z,86.97
2018-12-26T20:07:14.912Z,87.71
2018-12-26T20:09:44.140Z,87.73
2018-12-26T20:12:13.409Z,87.18
2018-12-26T20:14:42.639Z,87.87
2018-12-26T20:17:11.909Z,88.14
2018-12-26T20:19:41.171Z,87.63
2018-12-26T20:22:29.360Z,87.59
2018-12-26T20:27:46.864Z,88.57
2018-12-26T20:30:16.113Z,88.66
2018-12-26T20:32:45.379Z,87.51
2018-12-26T20:35:14.605Z,86.98
2018-12-26T20:37:43.868Z,87.27
2018-12-26T20:40:13.128Z,87.53
2018-12-26T20:42:42.392Z,87.39
2018-12-26T20:45:18.915Z,87.62
2018-12-26T20:47:48.188Z,87.52
2018-12-26T20:50:17.416Z,87.30
2018-12-26T20:52:46.677Z,87.18
2018-12-26T20:55:15.891Z,86.92
2018-12-26T20:57:45.159Z,86.92
2018-12-26T21:00:14.393Z,86.66
2018-12-26T21:02:43.663Z,86.66
2018-12-26T21:05:12.887Z,87.31
2018-12-26T21:07:45.826Z,86.96
2018-12-26T21:10:15.059Z,87.29
2018-12-26T21:12:44.321Z,86.94
2018-12-26T21:15:13.551Z,86.65
2018-12-26T21:17:42.771Z,87.03
2018-12-26T21:20:13.622Z,86.72
2018-12-26T21:22:43.056Z,87.29
2018-12-26T21:25:12.324Z,87.24
2018-12-26T21:27:41.561Z,86.91
2018-12-26T21:30:13.881Z,86.42
2018-12-26T21:32:43.102Z,86.75
2018-12-26T21:35:12.375Z,87.26
2018-12-26T21:37:41.600Z,87.17
2018-12-26T21:40:10.927Z,86.53
2018-12-26T21:42:40.152Z,87.07
2018-12-26T21:45:11.218Z,87.22
2018-12-26T21:47:40.464Z,87.71
2018-12-26T21:50:11.351Z,87.53
2018-12-26T21:52:40.571Z,86.95
2018-12-26T21:55:09.828Z,87.12
2018-12-26T21:57:39.052Z,87.55
2018-12-26T22:00:09.136Z,88.21
2018-12-26T22:02:38.357Z,88.25
2018-12-26T22:05:07.622Z,87.86
2018-12-26T22:07:36.843Z,87.90
2018-12-26T22:10:06.217Z,87.81
2018-12-26T22:12:35.441Z,87.61
2018-12-26T22:15:04.764Z,87.73
2018-12-26T22:17:33.996Z,87.48
2018-12-26T22:20:03.316Z,87.85
2018-12-26T22:22:32.557Z,87.78
2018-12-26T22:25:01.828Z,87.06
2018-12-26T22:27:31.058Z,86.80
2018-12-26T22:30:00.315Z,85.71
2018-12-26T22:32:30.769Z,86.21
2018-12-26T22:35:00.557Z,87.06
2018-12-26T22:37:29.793Z,86.63
2018-12-26T22:39:59.069Z,87.02
2018-12-26T22:42:28.287Z,88.02
2018-12-26T22:44:57.550Z,87.64
2018-12-26T22:47:26.776Z,87.28
2018-12-26T22:49:56.074Z,87.60
2018-12-26T22:52:25.292Z,87.92
2018-12-26T22:54:54.899Z,88.32
2018-12-26T22:57:25.529Z,88.51
2018-12-26T22:59:54.793Z,89.26
2018-12-26T23:02:24.024Z,89.29
2018-12-26T23:04:53.289Z,89.41
2018-12-26T23:07:22.515Z,89.47
2018-12-26T23:09:51.796Z,89.56
2018-12-26T23:12:21.018Z,89.50
2018-12-26T23:14:50.283Z,89.72
2018-12-26T23:17:19.578Z,89.55
2018-12-26T23:19:48.848Z,89.47
2018-12-26T23:22:18.116Z,89.29
2018-12-26T23:24:47.347Z,89.33
2018-12-26T23:27:16.630Z,89.27
2018-12-26T23:29:45.851Z,89.33
2018-12-26T23:32:15.128Z,88.67
2018-12-26T23:34:44.379Z,89.04
2018-12-26T23:37:13.645Z,89.43
2018-12-26T23:39:42.873Z,89.53
2018-12-26T23:42:12.132Z,89.48
